Flight Track Log - Related Links

Times and Time Zones

All times are in EST time to prevent confusion due to time zone crossing. See the AAY894 flight status page for this flight to view local times or setup timezone preferences in your user account.

Time Position Orientation Groundspeed Altitude Reporting Facility
EST Latitude Longitude Course Direction KTS MPH feet Rate Location/Type
Thu 09:11:30 AM 27.9667 -82.6833 North 190 219 1,600  Level Tampa TRACON
Thu 09:12:18 AM 28.0000 -82.6667 24° Northeast 254 292 2,700 2,353 Climbing Tampa TRACON
Thu 09:13:12 AM 28.0833 -82.6500 10° North 294 338 5,600 2,947 Climbing Tampa TRACON
Thu 09:14:12 AM 28.1500 -82.6667 348° North 278 320 8,300 2,900 Climbing Tampa TRACON
Thu 09:15:12 AM 28.2333 -82.6667 360° North 298 343 11,400 2,238 Climbing Tampa TRACON
Thu 09:16:00 AM 28.0528 -82.6582 North  Level Estimated
Thu 09:16:18 AM 28.3333 -82.6667 360° North 354 407 13,000  Level Tampa TRACON
Thu 09:17:09 AM 28.4169 -82.6636 North 340 391 15,000 2,270 Climbing Jacksonville Center
Thu 09:18:09 AM 28.5192 -82.6586 North 352 405 17,200 1,850 Climbing Jacksonville Center
Thu 09:19:09 AM 28.6256 -82.6536 North 365 420 18,700 1,550 Climbing Jacksonville Center
Thu 09:20:09 AM 28.7236 -82.6464 North 375 432 20,300 1,550 Climbing Jacksonville Center
Thu 09:21:09 AM 28.8364 -82.6389 North 389 448 21,800 1,400 Climbing Jacksonville Center
Thu 09:22:09 AM 28.9511 -82.6339 North 402 463 23,100 1,350 Climbing Jacksonville Center
Thu 09:23:09 AM 29.0742 -82.6264 North 417 480 24,500 1,450 Climbing Jacksonville Center
Thu 09:24:09 AM 29.1953 -82.6239 North 423 487 26,000 1,050 Climbing Jacksonville Center
Thu 09:25:09 AM 29.3206 -82.6164 North 434 499 26,600 900 Climbing Jacksonville Center
Thu 09:26:09 AM 29.4542 -82.6064 North 458 527 27,800 1,250 Climbing Jacksonville Center
Thu 09:27:09 AM 29.5856 -82.5989 North 468 539 29,100 1,250 Climbing Jacksonville Center
Thu 09:28:09 AM 29.7211 -82.5914 North 473 544 30,300 1,050 Climbing Jacksonville Center
Thu 09:29:09 AM 29.8569 -82.5814 North 478 550 31,200 900 Climbing Jacksonville Center
Thu 09:30:09 AM 29.9883 -82.5783 North 478 550 32,100 900 Climbing Jacksonville Center
Thu 09:31:09 AM 30.1242 -82.5731 North 478 550 33,000 450 Climbing Jacksonville Center
Thu 09:32:09 AM 30.2578 -82.5681 North 478 550 33,000 -50 Level Jacksonville Center
Thu 09:33:09 AM 30.3914 -82.5578 North 478 550 32,900  Descending Jacksonville Center
Thu 09:34:09 AM 30.5228 -82.5550 North 478 550 33,000  Climbing Jacksonville Center
Thu 09:35:09 AM 30.6544 -82.5447 North 478 550 32,900  Descending Jacksonville Center
Thu 09:36:09 AM 30.7881 -82.5444 360° North 473 544 33,000  Climbing Jacksonville Center
Thu 09:37:09 AM 30.9217 -82.5342 North 478 550 32,900  Descending Jacksonville Center
Thu 09:38:09 AM 31.0531 -82.5361 359° North 472 543 33,000 50 Climbing Jacksonville Center
Thu 09:39:09 AM 31.1972 -82.5233 North 472 543 33,000  Level Jacksonville Center
Thu 09:40:09 AM 31.3244 -82.5228 360° North 467 537 33,000  Level Jacksonville Center
Thu 09:42:03 AM 31.5700 -82.5033 North 458 527 33,000  Level Atlanta Center
Thu 09:43:03 AM 31.7014 -82.4817 North 458 527 33,000  Level Atlanta Center
Thu 09:44:03 AM 31.8306 -82.4647 North 463 533 33,000  Level Atlanta Center
Thu 09:45:03 AM 31.9617 -82.4403 North 463 533 33,000  Level Atlanta Center
Thu 09:46:03 AM 32.0908 -82.4233 North 469 540 33,000  Level Atlanta Center
Thu 09:47:03 AM 32.2242 -82.3989 North 469 540 33,000  Level Atlanta Center
Thu 09:48:03 AM 32.3511 -82.3842 North 463 533 33,000  Level Atlanta Center
Thu 09:49:03 AM 32.4825 -82.3594 North 463 533 33,000  Level Atlanta Center
Thu 09:50:03 AM 32.6094 -82.3397 North 463 533 33,000  Level Atlanta Center
Thu 09:51:03 AM 32.7425 -82.3125 10° North 468 539 33,000  Level Atlanta Center
Thu 09:52:03 AM 32.8739 -82.2975 North 468 539 33,000  Level Atlanta Center
Thu 09:53:03 AM 33.0050 -82.2753 North 468 539 33,000  Level Atlanta Center
Thu 09:54:03 AM 33.1342 -82.2578 North 462 532 33,000  Level Atlanta Center
Thu 09:55:03 AM 33.2633 -82.2303 10° North 462 532 33,000  Level Atlanta Center
Thu 09:56:03 AM 33.3903 -82.2128 North 462 532 33,000  Level Atlanta Center
Thu 09:57:03 AM 33.5214 -82.1875 North 462 532 33,000  Level Atlanta Center
Thu 09:58:03 AM 33.6403 -82.1725 North 468 539 33,000  Level Atlanta Center
Thu 09:59:03 AM 33.7714 -82.1444 10° North 468 539 33,000  Level Atlanta Center
Thu 10:00:03 AM 33.9025 -82.1267 North 468 539 33,000  Level Atlanta Center
Thu 10:01:03 AM 34.0294 -82.1036 North 468 539 33,000  Level Atlanta Center
Thu 10:02:03 AM 34.1628 -82.0831 North 463 533 33,000  Level Atlanta Center
Thu 10:03:03 AM 34.2917 -82.0575 North 463 533 33,000  Level Atlanta Center
Thu 10:04:03 AM 34.4228 -82.0367 North 468 539 33,000  Level Atlanta Center
Thu 10:05:03 AM 34.5539 -82.0058 11° North 468 539 33,000  Level Atlanta Center
Thu 10:06:03 AM 34.6867 -81.9725 12° North 473 544 33,000  Level Atlanta Center
Thu 10:07:03 AM 34.8303 -81.9411 10° North 478 550 33,000  Level Atlanta Center
Thu 10:08:03 AM 34.9631 -81.8997 14° North 483 556 33,000  Level Atlanta Center
Thu 10:09:03 AM 35.0897 -81.8683 11° North 477 549 33,000  Level Atlanta Center
Thu 10:10:03 AM 35.2206 -81.8344 12° North 471 542 33,000  Level Atlanta Center
Thu 10:11:03 AM 35.3514 -81.7981 13° North 471 542 33,000  Level Atlanta Center
Thu 10:12:03 AM 35.4844 -81.7636 12° North 471 542 33,000  Level Atlanta Center
Thu 10:13:03 AM 35.6150 -81.7269 13° North 471 542 33,000  Level Atlanta Center
Thu 10:14:03 AM 35.7481 -81.6925 12° North 477 549 33,000  Level Atlanta Center
Thu 10:15:03 AM 35.8786 -81.6553 13° North 477 549 33,000  Level Atlanta Center
Thu 10:16:03 AM 36.0053 -81.6183 13° North 477 549 33,000  Level Atlanta Center
Thu 10:17:03 AM 36.1358 -81.5836 12° North 477 549 33,000  Level Atlanta Center
Thu 10:18:03 AM 36.2644 -81.5486 12° North 472 543 33,000  Level Atlanta Center
Thu 10:19:03 AM 36.3786 -81.5167 13° North 466 536 33,000  Level Atlanta Center
Thu 10:20:03 AM 36.5092 -81.4764 14° North 466 536 33,000  Level Atlanta Center
Thu 10:21:03 AM 36.6358 -81.4492 10° North 466 536 33,000  Level Atlanta Center
Thu 10:23:14 AM 36.9069 -81.3731 13° North 472 543 33,000  Level Indianapolis Center
Thu 10:24:15 AM 37.0478 -81.3278 14° North 478 550 33,000  Level Indianapolis Center
Thu 10:25:17 AM 37.1747 -81.2994 10° North 466 536 33,000  Level Indianapolis Center
Thu 10:26:19 AM 37.3061 -81.2547 15° North 470 541 33,000  Level Indianapolis Center
Thu 10:27:20 AM 37.4303 -81.2261 10° North 464 534 33,000  Level Indianapolis Center
Thu 10:28:22 AM 37.5786 -81.1786 14° North 466 536 33,000  Level Indianapolis Center
Thu 10:29:24 AM 37.7014 -81.1483 11° North 462 532 33,000  Level Indianapolis Center
Thu 10:30:25 AM 37.8339 -81.1061 14° North 474 545 33,000  Level Indianapolis Center
Thu 10:31:27 AM 37.9614 -81.0744 11° North 468 539 33,000  Level Indianapolis Center
Thu 10:32:29 AM 38.0883 -81.0319 15° North 472 543 33,000  Level Indianapolis Center
Thu 10:33:30 AM 38.2167 -81.0000 11° North 469 540 33,000  Level Indianapolis Center
Thu 10:34:32 AM 38.3428 -80.9578 15° North 470 541 33,000  Level Indianapolis Center
Thu 10:35:33 AM 38.4931 -80.9200 11° North 463 533 33,000  Level Indianapolis Center
Thu 10:36:35 AM 38.6164 -80.8764 15° North 462 532 33,000  Level Indianapolis Center
Thu 10:37:37 AM 38.7411 -80.8453 11° North 459 528 33,000  Level Indianapolis Center
Thu 10:38:38 AM 38.8664 -80.8028 15° North 470 541 33,000  Level Indianapolis Center
Thu 10:39:40 AM 38.9933 -80.7692 12° North 470 541 33,000  Level Indianapolis Center
Thu 10:40:41 AM 39.1175 -80.7283 14° North 463 533 33,000  Level Indianapolis Center
Thu 10:41:43 AM 39.2431 -80.6956 11° North 461 531 33,000  Level Indianapolis Center
Thu 10:42:44 AM 39.3942 -80.6439 15° North 467 537 33,000  Level Indianapolis Center
Thu 10:43:46 AM 39.5200 -80.6125 11° North 462 532 33,000  Level Indianapolis Center
Thu 10:44:47 AM 39.6442 -80.5711 14° North 461 531 33,000  Level Indianapolis Center
Thu 10:45:18 AM 39.6986 -80.5567 12° North 460 529 33,000  Level Cleveland Center
Thu 10:46:19 AM 39.8203 -80.5247 11° North 450 518 33,000  Level Cleveland Center
Thu 10:47:21 AM 39.9414 -80.4806 16° North 451 519 33,000 -194 Level Cleveland Center
Thu 10:48:23 AM 40.0622 -80.4525 10° North 442 509 32,600 -976 Descending Cleveland Center
Thu 10:49:24 AM 40.2069 -80.4000 15° North 447 514 31,000 -780 Descending Cleveland Center
Thu 10:50:26 AM 40.3294 -80.3678 11° North 445 512 31,000  Level Cleveland Center
Thu 10:51:28 AM 40.4486 -80.3256 15° North 448 516 31,000  Level Cleveland Center
Thu 10:52:29 AM 40.5703 -80.2925 12° North 447 514 31,000  Level Cleveland Center
Thu 10:53:31 AM 40.6900 -80.2494 15° North 447 514 31,000  Level Cleveland Center
Thu 10:54:33 AM 40.8111 -80.2169 11° North 443 510 31,000 -484 Level Cleveland Center
Thu 10:55:35 AM 40.9331 -80.1303 28° Northeast 468 539 30,000 -1,463 Descending Cleveland Center
Thu 10:56:36 AM 41.0461 -80.0547 27° Northeast 456 525 28,000 -1,561 Descending Cleveland Center
Thu 10:57:38 AM 41.1725 -79.9589 30° Northeast 463 533 26,800 -1,113 Descending Cleveland Center
Thu 10:58:40 AM 41.2825 -79.8844 27° Northeast 448 516 25,700 -1,268 Descending Cleveland Center
Thu 10:59:41 AM 41.3919 -79.7969 31° Northeast 455 524 24,200 -829 Descending Cleveland Center
Thu 11:00:43 AM 41.5017 -79.7206 28° Northeast 448 516 24,000 -97 Descending Cleveland Center
Thu 11:01:45 AM 41.6072 -79.6386 30° Northeast 441 507 24,000 -195 Level Cleveland Center
Thu 11:02:46 AM 41.7156 -79.5603 28° Northeast 441 507 23,600 -927 Descending Cleveland Center
Thu 11:03:48 AM 41.8242 -79.4886 26° Northeast 437 503 22,100 -1,610 Descending Cleveland Center
Thu 11:04:49 AM 41.9594 -79.4389 15° North 419 482 20,300 -1,610 Descending Cleveland Center
Thu 11:05:51 AM 42.0672 -79.3831 21° North 416 479 18,800 -1,161 Descending Cleveland Center
Thu 11:06:53 AM 42.1747 -79.3464 14° North 405 466 17,900 -1,171 Descending Cleveland Center
Thu 11:07:54 AM 42.2789 -79.2972 19° North 397 457 16,400 -1,415 Descending Cleveland Center
Thu 11:08:56 AM 42.3842 -79.2594 15° North 392 451 15,000 -1,463 Descending Cleveland Center
Thu 11:09:57 AM 42.4858 -79.2089 20° North 384 442 13,400 -1,512 Descending Cleveland Center
Thu 11:10:59 AM 42.5794 -79.1733 16° North 349 402 11,900 -1,463 Descending Cleveland Center
Thu 11:12:00 AM 42.6633 -79.1344 19° North 322 371 10,400 -1,463 Descending Cleveland Center
Thu 11:13:02 AM 42.7544 -79.0992 16° North 301 346 8,900 -1,548 Descending Cleveland Center
Thu 11:14:04 AM 42.8258 -79.0517 26° Northeast 282 325 7,200 -1,610 Descending Cleveland Center
Thu 11:15:05 AM 42.8947 -78.9939 32° Northeast 279 321 5,600 -1,122 Descending Cleveland Center
Thu 11:16:07 AM 42.9606 -78.9442 29° Northeast 263 303 4,900 -634 Descending Cleveland Center
Thu 11:17:08 AM 43.0114 -78.9072 28° Northeast 227 261 4,300 -878 Descending Cleveland Center
Thu 11:18:10 AM 43.0600 -78.8733 27° Northeast 196 226 3,100 -1,171 Descending Cleveland Center
Thu 11:19:11 AM 43.1036 -78.8611 12° North 166 191 1,900 -829 Descending Cleveland Center
Thu 11:20:13 AM 43.1119 -78.9119 283° West 147 169 1,400 -484 Descending Cleveland Center
Thu 11:22:00 AM 43.1000 -78.9333 26° Northeast  Level FlightAware Approximate

Login

Don't have an account? Register now (free) for customized features, flight alerts, and more!